sensor_id;sensor_type;location;lat;lon;timestamp;temperature;humidity
4556;DHT22;2290;48.674;9.018;2023-07-09T00:00:43;21.50;99.90
4556;DHT22;2290;48.674;9.018;2023-07-09T00:03:11;21.60;99.90
4556;DHT22;2290;48.674;9.018;2023-07-09T00:05:36;21.50;99.90
4556;DHT22;2290;48.674;9.018;2023-07-09T00:08:02;21.40;99.90
4556;DHT22;2290;48.674;9.018;2023-07-09T00:10:28;21.40;99.90
4556;DHT22;2290;48.674;9.018;2023-07-09T00:12:54;21.40;99.90
4556;DHT22;2290;48.674;9.018;2023-07-09T00:15:20;21.40;99.90
4556;DHT22;2290;48.674;9.018;2023-07-09T00:17:46;21.40;99.90
4556;DHT22;2290;48.674;9.018;2023-07-09T00:20:17;21.40;99.90
4556;DHT22;2290;48.674;9.018;2023-07-09T00:22:43;21.40;99.90
4556;DHT22;2290;48.674;9.018;2023-07-09T00:25:13;21.40;99.90
4556;DHT22;2290;48.674;9.018;2023-07-09T00:27:42;21.40;99.90
4556;DHT22;2290;48.674;9.018;2023-07-09T00:30:18;21.40;99.90
4556;DHT22;2290;48.674;9.018;2023-07-09T00:32:44;21.40;99.90
4556;DHT22;2290;48.674;9.018;2023-07-09T00:35:13;21.40;99.90
4556;DHT22;2290;48.674;9.018;2023-07-09T00:37:41;21.30;99.90
4556;DHT22;2290;48.674;9.018;2023-07-09T00:40:18;21.30;99.90
4556;DHT22;2290;48.674;9.018;2023-07-09T00:42:46;21.20;99.90
4556;DHT22;2290;48.674;9.018;2023-07-09T00:45:26;21.10;99.90
4556;DHT22;2290;48.674;9.018;2023-07-09T00:48:01;21.10;99.90
4556;DHT22;2290;48.674;9.018;2023-07-09T00:50:49;21.10;99.90
4556;DHT22;2290;48.674;9.018;2023-07-09T00:53:29;21.00;99.90
4556;DHT22;2290;48.674;9.018;2023-07-09T00:56:01;21.00;99.90
4556;DHT22;2290;48.674;9.018;2023-07-09T00:58:28;21.00;99.90
4556;DHT22;2290;48.674;9.018;2023-07-09T01:01:00;20.90;99.90
4556;DHT22;2290;48.674;9.018;2023-07-09T01:03:34;20.90;99.90
4556;DHT22;2290;48.674;9.018;2023-07-09T01:06:00;20.90;99.90
4556;DHT22;2290;48.674;9.018;2023-07-09T01:08:30;20.90;99.90
4556;DHT22;2290;48.674;9.018;2023-07-09T01:10:57;20.90;99.90
4556;DHT22;2290;48.674;9.018;2023-07-09T01:13:24;20.80;99.90
4556;DHT22;2290;48.674;9.018;2023-07-09T01:15:51;20.80;99.90
4556;DHT22;2290;48.674;9.018;2023-07-09T01:18:17;20.80;99.90
4556;DHT22;2290;48.674;9.018;2023-07-09T01:20:43;20.80;99.90
4556;DHT22;2290;48.674;9.018;2023-07-09T01:23:09;20.80;99.90
4556;DHT22;2290;48.674;9.018;2023-07-09T01:25:43;20.80;99.90
4556;DHT22;2290;48.674;9.018;2023-07-09T01:28:09;20.80;99.90
4556;DHT22;2290;48.674;9.018;2023-07-09T01:30:39;20.80;99.90
4556;DHT22;2290;48.674;9.018;2023-07-09T01:33:05;20.80;99.90
4556;DHT22;2290;48.674;9.018;2023-07-09T01:35:33;20.80;99.90
4556;DHT22;2290;48.674;9.018;2023-07-09T01:38:00;20.80;99.90
4556;DHT22;2290;48.674;9.018;2023-07-09T01:40:28;20.80;99.90
4556;DHT22;2290;48.674;9.018;2023-07-09T01:42:55;20.70;99.90
4556;DHT22;2290;48.674;9.018;2023-07-09T01:45:23;20.70;99.90
4556;DHT22;2290;48.674;9.018;2023-07-09T01:47:49;20.70;99.90
4556;DHT22;2290;48.674;9.018;2023-07-09T01:50:15;20.60;99.90
4556;DHT22;2290;48.674;9.018;2023-07-09T01:52:42;20.50;99.90
4556;DHT22;2290;48.674;9.018;2023-07-09T01:55:10;20.40;99.90
4556;DHT22;2290;48.674;9.018;2023-07-09T01:57:36;20.30;99.90
4556;DHT22;2290;48.674;9.018;2023-07-09T02:00:08;20.40;99.90
4556;DHT22;2290;48.674;9.018;2023-07-09T02:02:36;20.40;99.90
4556;DHT22;2290;48.674;9.018;2023-07-09T02:05:05;20.30;99.90
4556;DHT22;2290;48.674;9.018;2023-07-09T02:07:31;20.30;99.90
4556;DHT22;2290;48.674;9.018;2023-07-09T02:09:58;20.30;99.90
4556;DHT22;2290;48.674;9.018;2023-07-09T02:12:24;20.30;99.90
4556;DHT22;2290;48.674;9.018;2023-07-09T02:14:51;20.30;99.90
4556;DHT22;2290;48.674;9.018;2023-07-09T02:17:16;20.30;99.90
4556;DHT22;2290;48.674;9.018;2023-07-09T02:19:42;20.30;99.90
4556;DHT22;2290;48.674;9.018;2023-07-09T02:22:10;20.30;99.90
4556;DHT22;2290;48.674;9.018;2023-07-09T02:24:36;20.20;99.90
4556;DHT22;2290;48.674;9.018;2023-07-09T02:27:04;20.10;99.90
4556;DHT22;2290;48.674;9.018;2023-07-09T02:29:31;20.10;99.90
4556;DHT22;2290;48.674;9.018;2023-07-09T02:31:58;20.10;99.90
4556;DHT22;2290;48.674;9.018;2023-07-09T02:34:28;20.10;99.90
4556;DHT22;2290;48.674;9.018;2023-07-09T02:36:57;20.20;99.90
4556;DHT22;2290;48.674;9.018;2023-07-09T02:39:23;20.10;99.90
4556;DHT22;2290;48.674;9.018;2023-07-09T02:41:49;20.20;99.90
4556;DHT22;2290;48.674;9.018;2023-07-09T02:44:15;20.10;99.90
4556;DHT22;2290;48.674;9.018;2023-07-09T02:46:41;20.20;99.90
4556;DHT22;2290;48.674;9.018;2023-07-09T02:49:09;20.20;99.90
4556;DHT22;2290;48.674;9.018;2023-07-09T02:51:34;20.10;99.90
4556;DHT22;2290;48.674;9.018;2023-07-09T02:54:01;20.10;99.90
4556;DHT22;2290;48.674;9.018;2023-07-09T02:56:27;20.10;99.90
4556;DHT22;2290;48.674;9.018;2023-07-09T02:58:54;20.00;99.90
4556;DHT22;2290;48.674;9.018;2023-07-09T03:01:19;20.10;99.90
4556;DHT22;2290;48.674;9.018;2023-07-09T03:03:51;20.10;99.90
4556;DHT22;2290;48.674;9.018;2023-07-09T03:06:23;19.90;99.90
4556;DHT22;2290;48.674;9.018;2023-07-09T03:08:49;19.90;99.90
4556;DHT22;2290;48.674;9.018;2023-07-09T03:11:15;19.80;99.90
4556;DHT22;2290;48.674;9.018;2023-07-09T03:13:41;19.80;99.90
4556;DHT22;2290;48.674;9.018;2023-07-09T03:16:07;19.80;99.90
4556;DHT22;2290;48.674;9.018;2023-07-09T03:18:33;19.80;99.90
4556;DHT22;2290;48.674;9.018;2023-07-09T03:20:59;19.90;99.90
4556;DHT22;2290;48.674;9.018;2023-07-09T03:23:25;20.00;99.90
4556;DHT22;2290;48.674;9.018;2023-07-09T03:25:50;19.90;99.90
4556;DHT22;2290;48.674;9.018;2023-07-09T03:28:16;19.90;99.90
4556;DHT22;2290;48.674;9.018;2023-07-09T03:30:43;19.90;99.90
4556;DHT22;2290;48.674;9.018;2023-07-09T03:33:11;19.70;99.90
4556;DHT22;2290;48.674;9.018;2023-07-09T03:35:38;19.70;99.90
4556;DHT22;2290;48.674;9.018;2023-07-09T03:38:08;19.70;99.90
4556;DHT22;2290;48.674;9.018;2023-07-09T03:40:34;19.60;99.90
4556;DHT22;2290;48.674;9.018;2023-07-09T03:43:01;19.70;99.90
4556;DHT22;2290;48.674;9.018;2023-07-09T03:45:26;19.60;99.90
4556;DHT22;2290;48.674;9.018;2023-07-09T03:47:52;19.60;99.90
4556;DHT22;2290;48.674;9.018;2023-07-09T03:50:18;19.60;99.90
4556;DHT22;2290;48.674;9.018;2023-07-09T03:52:44;19.60;99.90
4556;DHT22;2290;48.674;9.018;2023-07-09T03:55:10;19.50;99.90
4556;DHT22;2290;48.674;9.018;2023-07-09T03:57:36;19.50;99.90
4556;DHT22;2290;48.674;9.018;2023-07-09T04:00:04;19.60;99.90
4556;DHT22;2290;48.674;9.018;2023-07-09T04:02:30;19.70;99.90
4556;DHT22;2290;48.674;9.018;2023-07-09T04:04:56;19.60;99.90
4556;DHT22;2290;48.674;9.018;2023-07-09T04:07:22;19.70;99.90
4556;DHT22;2290;48.674;9.018;2023-07-09T04:09:48;19.70;99.90
4556;DHT22;2290;48.674;9.018;2023-07-09T04:12:14;19.80;99.90
4556;DHT22;2290;48.674;9.018;2023-07-09T04:14:39;19.70;99.90
4556;DHT22;2290;48.674;9.018;2023-07-09T04:17:06;19.60;99.90
4556;DHT22;2290;48.674;9.018;2023-07-09T04:19:31;19.60;99.90
4556;DHT22;2290;48.674;9.018;2023-07-09T04:21:57;19.60;99.90
4556;DHT22;2290;48.674;9.018;2023-07-09T04:24:23;19.50;99.90
4556;DHT22;2290;48.674;9.018;2023-07-09T04:26:49;19.70;99.90
4556;DHT22;2290;48.674;9.018;2023-07-09T04:29:14;19.80;99.90
4556;DHT22;2290;48.674;9.018;2023-07-09T04:31:40;20.00;99.90
4556;DHT22;2290;48.674;9.018;2023-07-09T04:34:07;20.00;99.90
4556;DHT22;2290;48.674;9.018;2023-07-09T04:36:34;20.10;99.90
4556;DHT22;2290;48.674;9.018;2023-07-09T04:39:02;20.10;99.90
4556;DHT22;2290;48.674;9.018;2023-07-09T04:41:28;20.10;99.90
4556;DHT22;2290;48.674;9.018;2023-07-09T04:43:54;20.10;99.90
4556;DHT22;2290;48.674;9.018;2023-07-09T04:46:19;20.10;99.90
4556;DHT22;2290;48.674;9.018;2023-07-09T04:48:45;20.20;99.90
4556;DHT22;2290;48.674;9.018;2023-07-09T04:51:11;20.30;99.90
4556;DHT22;2290;48.674;9.018;2023-07-09T04:53:36;20.40;99.90
4556;DHT22;2290;48.674;9.018;2023-07-09T04:56:02;20.50;99.90
4556;DHT22;2290;48.674;9.018;2023-07-09T04:58:29;20.60;99.90
4556;DHT22;2290;48.674;9.018;2023-07-09T05:00:59;20.60;99.90
4556;DHT22;2290;48.674;9.018;2023-07-09T05:03:25;20.70;99.90
4556;DHT22;2290;48.674;9.018;2023-07-09T05:05:50;20.80;99.90
4556;DHT22;2290;48.674;9.018;2023-07-09T05:08:16;20.80;99.90
4556;DHT22;2290;48.674;9.018;2023-07-09T05:10:44;20.90;99.90
4556;DHT22;2290;48.674;9.018;2023-07-09T05:13:10;21.00;99.90
4556;DHT22;2290;48.674;9.018;2023-07-09T05:15:40;21.10;99.90
4556;DHT22;2290;48.674;9.018;2023-07-09T05:18:07;21.20;99.90
4556;DHT22;2290;48.674;9.018;2023-07-09T05:20:35;21.30;99.90
4556;DHT22;2290;48.674;9.018;2023-07-09T05:23:01;21.30;99.90
4556;DHT22;2290;48.674;9.018;2023-07-09T05:25:27;21.40;99.90
4556;DHT22;2290;48.674;9.018;2023-07-09T05:27:53;21.50;99.90
4556;DHT22;2290;48.674;9.018;2023-07-09T05:30:19;21.50;99.90
4556;DHT22;2290;48.674;9.018;2023-07-09T05:32:47;21.60;99.90
4556;DHT22;2290;48.674;9.018;2023-07-09T05:35:13;21.60;99.90
4556;DHT22;2290;48.674;9.018;2023-07-09T05:37:40;21.70;99.90
4556;DHT22;2290;48.674;9.018;2023-07-09T05:40:07;21.70;99.90
4556;DHT22;2290;48.674;9.018;2023-07-09T05:42:34;21.80;99.90
4556;DHT22;2290;48.674;9.018;2023-07-09T05:44:59;21.90;99.90
4556;DHT22;2290;48.674;9.018;2023-07-09T05:47:27;22.00;99.90
4556;DHT22;2290;48.674;9.018;2023-07-09T05:49:52;22.20;99.90
4556;DHT22;2290;48.674;9.018;2023-07-09T05:52:19;22.30;99.90
4556;DHT22;2290;48.674;9.018;2023-07-09T05:54:45;22.50;99.90
4556;DHT22;2290;48.674;9.018;2023-07-09T05:57:11;22.60;99.90
4556;DHT22;2290;48.674;9.018;2023-07-09T05:59:36;22.70;99.90
4556;DHT22;2290;48.674;9.018;2023-07-09T06:02:02;22.80;99.90
4556;DHT22;2290;48.674;9.018;2023-07-09T06:04:30;22.80;99.90
4556;DHT22;2290;48.674;9.018;2023-07-09T06:06:59;22.90;99.90
4556;DHT22;2290;48.674;9.018;2023-07-09T06:09:25;23.10;99.90
4556;DHT22;2290;48.674;9.018;2023-07-09T06:11:50;23.20;99.90
4556;DHT22;2290;48.674;9.018;2023-07-09T06:14:16;23.30;99.90
4556;DHT22;2290;48.674;9.018;2023-07-09T06:16:42;23.40;99.90
4556;DHT22;2290;48.674;9.018;2023-07-09T06:19:09;23.50;99.90
4556;DHT22;2290;48.674;9.018;2023-07-09T06:21:35;23.60;99.90
4556;DHT22;2290;48.674;9.018;2023-07-09T06:24:01;23.70;99.90
4556;DHT22;2290;48.674;9.018;2023-07-09T06:26:26;23.80;99.90
4556;DHT22;2290;48.674;9.018;2023-07-09T06:28:52;23.90;99.90
4556;DHT22;2290;48.674;9.018;2023-07-09T06:31:17;24.10;99.90
4556;DHT22;2290;48.674;9.018;2023-07-09T06:33:47;24.10;99.90
4556;DHT22;2290;48.674;9.018;2023-07-09T06:36:12;24.20;99.90
4556;DHT22;2290;48.674;9.018;2023-07-09T06:38:39;24.30;99.90
4556;DHT22;2290;48.674;9.018;2023-07-09T06:41:05;24.40;99.90
4556;DHT22;2290;48.674;9.018;2023-07-09T06:43:31;24.50;99.90
4556;DHT22;2290;48.674;9.018;2023-07-09T06:45:58;24.70;99.90
4556;DHT22;2290;48.674;9.018;2023-07-09T06:48:26;24.80;99.90
4556;DHT22;2290;48.674;9.018;2023-07-09T06:50:55;24.90;99.90
4556;DHT22;2290;48.674;9.018;2023-07-09T06:53:23;24.90;99.90
4556;DHT22;2290;48.674;9.018;2023-07-09T06:55:48;25.00;99.90
4556;DHT22;2290;48.674;9.018;2023-07-09T06:58:18;25.20;99.90
4556;DHT22;2290;48.674;9.018;2023-07-09T07:00:44;25.30;99.90
4556;DHT22;2290;48.674;9.018;2023-07-09T07:03:10;25.50;99.90
4556;DHT22;2290;48.674;9.018;2023-07-09T07:05:35;25.60;99.90
4556;DHT22;2290;48.674;9.018;2023-07-09T07:08:02;25.60;99.90
4556;DHT22;2290;48.674;9.018;2023-07-09T07:10:29;25.80;99.90
4556;DHT22;2290;48.674;9.018;2023-07-09T07:12:55;25.90;99.90
4556;DHT22;2290;48.674;9.018;2023-07-09T07:15:21;26.00;99.90
4556;DHT22;2290;48.674;9.018;2023-07-09T07:17:47;26.00;99.90
4556;DHT22;2290;48.674;9.018;2023-07-09T07:20:13;26.10;99.90
4556;DHT22;2290;48.674;9.018;2023-07-09T07:22:39;26.20;99.90
4556;DHT22;2290;48.674;9.018;2023-07-09T07:25:09;26.40;99.90
4556;DHT22;2290;48.674;9.018;2023-07-09T07:27:36;26.50;99.30
4556;DHT22;2290;48.674;9.018;2023-07-09T07:30:02;26.60;99.60
4556;DHT22;2290;48.674;9.018;2023-07-09T07:32:28;26.70;99.20
4556;DHT22;2290;48.674;9.018;2023-07-09T07:34:53;26.70;98.70
4556;DHT22;2290;48.674;9.018;2023-07-09T07:37:20;26.80;98.20
4556;DHT22;2290;48.674;9.018;2023-07-09T07:39:48;26.90;98.20
4556;DHT22;2290;48.674;9.018;2023-07-09T07:42:13;26.90;98.30
4556;DHT22;2290;48.674;9.018;2023-07-09T07:44:39;27.00;98.30
4556;DHT22;2290;48.674;9.018;2023-07-09T07:47:05;27.00;98.40
4556;DHT22;2290;48.674;9.018;2023-07-09T07:49:32;27.10;98.20
4556;DHT22;2290;48.674;9.018;2023-07-09T07:51:58;27.20;98.00
4556;DHT22;2290;48.674;9.018;2023-07-09T07:54:24;27.40;98.00
4556;DHT22;2290;48.674;9.018;2023-07-09T07:56:49;27.50;97.60
4556;DHT22;2290;48.674;9.018;2023-07-09T07:59:17;27.50;97.40
4556;DHT22;2290;48.674;9.018;2023-07-09T08:01:42;27.70;97.20
4556;DHT22;2290;48.674;9.018;2023-07-09T08:04:08;27.80;97.00
4556;DHT22;2290;48.674;9.018;2023-07-09T08:06:34;27.80;96.60
4556;DHT22;2290;48.674;9.018;2023-07-09T08:09:01;27.90;96.60
4556;DHT22;2290;48.674;9.018;2023-07-09T08:11:26;28.00;96.30
4556;DHT22;2290;48.674;9.018;2023-07-09T08:13:53;28.00;96.20
4556;DHT22;2290;48.674;9.018;2023-07-09T08:16:19;28.00;96.50
4556;DHT22;2290;48.674;9.018;2023-07-09T08:18:44;28.20;96.70
4556;DHT22;2290;48.674;9.018;2023-07-09T08:21:10;28.20;96.60
4556;DHT22;2290;48.674;9.018;2023-07-09T08:23:36;28.30;96.50
4556;DHT22;2290;48.674;9.018;2023-07-09T08:26:02;28.30;95.80
4556;DHT22;2290;48.674;9.018;2023-07-09T08:28:29;28.40;95.50
4556;DHT22;2290;48.674;9.018;2023-07-09T08:30:56;28.30;95.40
4556;DHT22;2290;48.674;9.018;2023-07-09T08:33:23;28.30;95.30
4556;DHT22;2290;48.674;9.018;2023-07-09T08:35:50;28.30;95.40
4556;DHT22;2290;48.674;9.018;2023-07-09T08:38:16;28.50;95.50
4556;DHT22;2290;48.674;9.018;2023-07-09T08:41:06;28.50;95.00
4556;DHT22;2290;48.674;9.018;2023-07-09T08:44:11;28.60;94.70
4556;DHT22;2290;48.674;9.018;2023-07-09T08:49:41;28.80;95.00
4556;DHT22;2290;48.674;9.018;2023-07-09T08:52:32;28.90;94.70
4556;DHT22;2290;48.674;9.018;2023-07-09T08:55:05;29.00;94.30
4556;DHT22;2290;48.674;9.018;2023-07-09T08:57:37;29.00;94.60
4556;DHT22;2290;48.674;9.018;2023-07-09T09:03:09;29.30;94.00
4556;DHT22;2290;48.674;9.018;2023-07-09T09:05:39;29.40;94.20
4556;DHT22;2290;48.674;9.018;2023-07-09T09:08:38;29.50;94.20
4556;DHT22;2290;48.674;9.018;2023-07-09T09:13:30;29.70;93.80
4556;DHT22;2290;48.674;9.018;2023-07-09T09:15:59;29.80;92.90
4556;DHT22;2290;48.674;9.018;2023-07-09T09:18:32;30.00;93.00
4556;DHT22;2290;48.674;9.018;2023-07-09T09:21:21;30.10;92.60
4556;DHT22;2290;48.674;9.018;2023-07-09T09:23:51;30.30;91.70
4556;DHT22;2290;48.674;9.018;2023-07-09T09:26:31;30.30;91.30
4556;DHT22;2290;48.674;9.018;2023-07-09T09:28:58;30.30;91.50
4556;DHT22;2290;48.674;9.018;2023-07-09T09:31:27;30.40;90.70
4556;DHT22;2290;48.674;9.018;2023-07-09T09:33:53;30.50;91.00
4556;DHT22;2290;48.674;9.018;2023-07-09T09:36:22;30.50;91.00
4556;DHT22;2290;48.674;9.018;2023-07-09T09:38:49;30.60;90.70
4556;DHT22;2290;48.674;9.018;2023-07-09T09:41:23;30.70;90.20
4556;DHT22;2290;48.674;9.018;2023-07-09T09:43:52;30.80;90.00
4556;DHT22;2290;48.674;9.018;2023-07-09T09:46:21;30.70;89.90
4556;DHT22;2290;48.674;9.018;2023-07-09T09:48:49;30.80;90.00
4556;DHT22;2290;48.674;9.018;2023-07-09T09:51:17;30.90;90.10
4556;DHT22;2290;48.674;9.018;2023-07-09T09:53:51;30.90;86.70
4556;DHT22;2290;48.674;9.018;2023-07-09T09:56:26;30.90;87.20
4556;DHT22;2290;48.674;9.018;2023-07-09T09:58:54;31.00;89.10
4556;DHT22;2290;48.674;9.018;2023-07-09T10:01:29;31.20;85.80
4556;DHT22;2290;48.674;9.018;2023-07-09T10:03:57;31.30;83.80
4556;DHT22;2290;48.674;9.018;2023-07-09T10:06:36;31.40;82.40
4556;DHT22;2290;48.674;9.018;2023-07-09T10:09:26;31.60;82.70
4556;DHT22;2290;48.674;9.018;2023-07-09T10:12:03;31.70;83.20
4556;DHT22;2290;48.674;9.018;2023-07-09T10:17:20;32.00;83.40
4556;DHT22;2290;48.674;9.018;2023-07-09T10:20:00;32.00;80.30
4556;DHT22;2290;48.674;9.018;2023-07-09T10:30:58;32.20;76.00
4556;DHT22;2290;48.674;9.018;2023-07-09T10:36:34;32.30;77.20
4556;DHT22;2290;48.674;9.018;2023-07-09T10:39:09;32.40;77.30
4556;DHT22;2290;48.674;9.018;2023-07-09T10:41:37;32.60;77.30
4556;DHT22;2290;48.674;9.018;2023-07-09T10:44:24;32.80;77.60
4556;DHT22;2290;48.674;9.018;2023-07-09T10:46:54;32.90;76.60
4556;DHT22;2290;48.674;9.018;2023-07-09T10:49:27;32.90;75.70
4556;DHT22;2290;48.674;9.018;2023-07-09T10:54:32;33.10;73.10
4556;DHT22;2290;48.674;9.018;2023-07-09T10:57:28;33.20;73.00
4556;DHT22;2290;48.674;9.018;2023-07-09T10:59:54;33.30;71.20
4556;DHT22;2290;48.674;9.018;2023-07-09T11:02:26;33.40;71.70
4556;DHT22;2290;48.674;9.018;2023-07-09T11:04:59;33.40;70.20
4556;DHT22;2290;48.674;9.018;2023-07-09T11:08:33;33.40;70.70
4556;DHT22;2290;48.674;9.018;2023-07-09T11:10:37;33.30;71.00
4556;DHT22;2290;48.674;9.018;2023-07-09T11:13:09;33.30;71.80
4556;DHT22;2290;48.674;9.018;2023-07-09T11:15:37;33.40;70.70
4556;DHT22;2290;48.674;9.018;2023-07-09T11:18:06;33.50;71.30
4556;DHT22;2290;48.674;9.018;2023-07-09T11:20:41;33.50;72.90
4556;DHT22;2290;48.674;9.018;2023-07-09T11:23:18;33.60;72.50
4556;DHT22;2290;48.674;9.018;2023-07-09T11:25:49;33.90;71.70
4556;DHT22;2290;48.674;9.018;2023-07-09T11:28:15;33.90;70.20
4556;DHT22;2290;48.674;9.018;2023-07-09T11:33:26;34.00;68.80
4556;DHT22;2290;48.674;9.018;2023-07-09T11:35:54;34.00;68.80
4556;DHT22;2290;48.674;9.018;2023-07-09T11:38:39;34.10;66.80
4556;DHT22;2290;48.674;9.018;2023-07-09T11:44:21;34.30;65.40
4556;DHT22;2290;48.674;9.018;2023-07-09T11:50:01;34.50;68.00
4556;DHT22;2290;48.674;9.018;2023-07-09T11:52:43;34.60;69.20
4556;DHT22;2290;48.674;9.018;2023-07-09T11:55:28;34.70;69.30
4556;DHT22;2290;48.674;9.018;2023-07-09T11:58:00;34.90;68.50
4556;DHT22;2290;48.674;9.018;2023-07-09T12:00:28;34.90;67.80
4556;DHT22;2290;48.674;9.018;2023-07-09T12:02:57;34.80;64.50
4556;DHT22;2290;48.674;9.018;2023-07-09T12:05:28;34.80;64.90
4556;DHT22;2290;48.674;9.018;2023-07-09T12:07:55;34.70;63.80
4556;DHT22;2290;48.674;9.018;2023-07-09T12:10:27;34.70;64.70
4556;DHT22;2290;48.674;9.018;2023-07-09T12:12:55;34.80;63.50
4556;DHT22;2290;48.674;9.018;2023-07-09T12:15:24;34.90;62.40
4556;DHT22;2290;48.674;9.018;2023-07-09T12:17:58;35.00;61.90
4556;DHT22;2290;48.674;9.018;2023-07-09T12:20:25;35.10;64.10
4556;DHT22;2290;48.674;9.018;2023-07-09T12:22:51;35.30;64.10
4556;DHT22;2290;48.674;9.018;2023-07-09T12:25:23;35.30;63.40
4556;DHT22;2290;48.674;9.018;2023-07-09T12:27:48;35.30;62.70
4556;DHT22;2290;48.674;9.018;2023-07-09T12:30:14;35.40;63.80
4556;DHT22;2290;48.674;9.018;2023-07-09T12:32:44;35.50;59.90
4556;DHT22;2290;48.674;9.018;2023-07-09T12:35:13;35.60;59.10
4556;DHT22;2290;48.674;9.018;2023-07-09T12:37:42;35.50;57.20
4556;DHT22;2290;48.674;9.018;2023-07-09T12:42:39;35.80;58.70
4556;DHT22;2290;48.674;9.018;2023-07-09T12:45:05;36.00;56.80
4556;DHT22;2290;48.674;9.018;2023-07-09T12:47:31;36.20;58.60
4556;DHT22;2290;48.674;9.018;2023-07-09T12:50:47;36.20;58.40
4556;DHT22;2290;48.674;9.018;2023-07-09T12:52:49;36.40;58.40
4556;DHT22;2290;48.674;9.018;2023-07-09T12:55:26;36.30;57.20
4556;DHT22;2290;48.674;9.018;2023-07-09T12:57:57;36.20;56.90
4556;DHT22;2290;48.674;9.018;2023-07-09T13:00:29;36.30;57.50
4556;DHT22;2290;48.674;9.018;2023-07-09T13:02:57;36.40;57.60
4556;DHT22;2290;48.674;9.018;2023-07-09T13:05:24;36.60;57.70
4556;DHT22;2290;48.674;9.018;2023-07-09T13:07:52;36.80;57.40
4556;DHT22;2290;48.674;9.018;2023-07-09T13:10:24;37.10;56.60
4556;DHT22;2290;48.674;9.018;2023-07-09T13:12:55;37.20;57.30
4556;DHT22;2290;48.674;9.018;2023-07-09T13:15:29;37.50;57.50
4556;DHT22;2290;48.674;9.018;2023-07-09T13:18:03;37.60;56.10
4556;DHT22;2290;48.674;9.018;2023-07-09T13:20:32;37.50;55.80
4556;DHT22;2290;48.674;9.018;2023-07-09T13:23:00;37.60;55.90
4556;DHT22;2290;48.674;9.018;2023-07-09T13:25:26;37.50;54.70
4556;DHT22;2290;48.674;9.018;2023-07-09T13:27:53;37.40;54.60
4556;DHT22;2290;48.674;9.018;2023-07-09T13:30:19;37.30;54.20
4556;DHT22;2290;48.674;9.018;2023-07-09T13:32:46;37.40;54.60
4556;DHT22;2290;48.674;9.018;2023-07-09T13:35:18;37.40;53.50
4556;DHT22;2290;48.674;9.018;2023-07-09T13:37:45;37.40;53.60
4556;DHT22;2290;48.674;9.018;2023-07-09T13:40:13;37.30;53.20
4556;DHT22;2290;48.674;9.018;2023-07-09T13:42:40;37.20;53.90
4556;DHT22;2290;48.674;9.018;2023-07-09T13:45:16;36.90;53.20
4556;DHT22;2290;48.674;9.018;2023-07-09T13:47:42;36.60;54.10
4556;DHT22;2290;48.674;9.018;2023-07-09T13:50:08;36.50;54.80
4556;DHT22;2290;48.674;9.018;2023-07-09T13:52:34;36.70;55.30
4556;DHT22;2290;48.674;9.018;2023-07-09T13:55:00;36.70;56.70
4556;DHT22;2290;48.674;9.018;2023-07-09T13:57:25;36.60;55.20
4556;DHT22;2290;48.674;9.018;2023-07-09T13:59:51;36.50;54.90
4556;DHT22;2290;48.674;9.018;2023-07-09T14:02:26;36.50;53.80
4556;DHT22;2290;48.674;9.018;2023-07-09T14:05:02;36.50;54.90
4556;DHT22;2290;48.674;9.018;2023-07-09T14:07:31;36.60;53.70
4556;DHT22;2290;48.674;9.018;2023-07-09T14:09:58;36.60;53.00
4556;DHT22;2290;48.674;9.018;2023-07-09T14:12:27;36.80;53.10
4556;DHT22;2290;48.674;9.018;2023-07-09T14:14:53;36.80;54.50
4556;DHT22;2290;48.674;9.018;2023-07-09T14:17:21;37.00;53.50
4556;DHT22;2290;48.674;9.018;2023-07-09T14:19:48;37.10;53.00
4556;DHT22;2290;48.674;9.018;2023-07-09T14:22:28;37.10;53.10
4556;DHT22;2290;48.674;9.018;2023-07-09T14:24:56;37.10;53.50
4556;DHT22;2290;48.674;9.018;2023-07-09T14:27:22;37.10;54.50
4556;DHT22;2290;48.674;9.018;2023-07-09T14:29:48;37.20;55.00
4556;DHT22;2290;48.674;9.018;2023-07-09T14:32:34;37.30;54.00
4556;DHT22;2290;48.674;9.018;2023-07-09T14:35:22;37.20;54.20
4556;DHT22;2290;48.674;9.018;2023-07-09T14:37:50;37.20;54.70
4556;DHT22;2290;48.674;9.018;2023-07-09T14:40:18;37.20;54.40
4556;DHT22;2290;48.674;9.018;2023-07-09T14:42:45;37.10;54.30
4556;DHT22;2290;48.674;9.018;2023-07-09T14:45:25;37.30;54.60
4556;DHT22;2290;48.674;9.018;2023-07-09T14:47:52;37.10;54.00
4556;DHT22;2290;48.674;9.018;2023-07-09T14:50:18;37.00;54.10
4556;DHT22;2290;48.674;9.018;2023-07-09T14:52:46;37.10;54.60
4556;DHT22;2290;48.674;9.018;2023-07-09T14:55:17;37.20;54.10
4556;DHT22;2290;48.674;9.018;2023-07-09T14:57:44;37.30;53.60
4556;DHT22;2290;48.674;9.018;2023-07-09T15:00:19;37.50;53.90
4556;DHT22;2290;48.674;9.018;2023-07-09T15:02:47;37.70;53.10
4556;DHT22;2290;48.674;9.018;2023-07-09T15:05:21;37.60;51.50
4556;DHT22;2290;48.674;9.018;2023-07-09T15:07:47;37.60;51.80
4556;DHT22;2290;48.674;9.018;2023-07-09T15:10:23;37.70;51.80
4556;DHT22;2290;48.674;9.018;2023-07-09T15:12:49;37.80;52.20
4556;DHT22;2290;48.674;9.018;2023-07-09T15:15:35;37.90;51.90
4556;DHT22;2290;48.674;9.018;2023-07-09T15:18:10;37.90;51.20
4556;DHT22;2290;48.674;9.018;2023-07-09T15:20:36;37.80;51.20
4556;DHT22;2290;48.674;9.018;2023-07-09T15:23:02;37.70;51.20
4556;DHT22;2290;48.674;9.018;2023-07-09T15:25:29;37.40;51.70
4556;DHT22;2290;48.674;9.018;2023-07-09T15:27:56;37.20;52.00
4556;DHT22;2290;48.674;9.018;2023-07-09T15:30:24;37.10;51.40
4556;DHT22;2290;48.674;9.018;2023-07-09T15:32:50;36.90;51.10
4556;DHT22;2290;48.674;9.018;2023-07-09T15:35:17;36.50;51.50
4556;DHT22;2290;48.674;9.018;2023-07-09T15:37:44;36.20;51.80
4556;DHT22;2290;48.674;9.018;2023-07-09T15:40:18;36.00;52.60
4556;DHT22;2290;48.674;9.018;2023-07-09T15:42:45;35.80;52.90
4556;DHT22;2290;48.674;9.018;2023-07-09T15:45:16;35.60;53.30
4556;DHT22;2290;48.674;9.018;2023-07-09T15:47:41;35.50;52.80
4556;DHT22;2290;48.674;9.018;2023-07-09T15:50:21;35.40;52.70
4556;DHT22;2290;48.674;9.018;2023-07-09T15:52:49;35.30;53.10
4556;DHT22;2290;48.674;9.018;2023-07-09T15:55:26;35.10;52.80
4556;DHT22;2290;48.674;9.018;2023-07-09T15:57:54;34.90;53.50
4556;DHT22;2290;48.674;9.018;2023-07-09T16:00:24;34.80;54.30
4556;DHT22;2290;48.674;9.018;2023-07-09T16:02:51;34.60;54.60
4556;DHT22;2290;48.674;9.018;2023-07-09T16:05:18;34.50;55.50
4556;DHT22;2290;48.674;9.018;2023-07-09T16:07:44;34.30;55.50
4556;DHT22;2290;48.674;9.018;2023-07-09T16:10:09;34.30;55.10
4556;DHT22;2290;48.674;9.018;2023-07-09T16:12:35;34.20;55.40
4556;DHT22;2290;48.674;9.018;2023-07-09T16:15:00;34.10;55.50
4556;DHT22;2290;48.674;9.018;2023-07-09T16:17:26;34.00;55.80
4556;DHT22;2290;48.674;9.018;2023-07-09T16:19:52;33.80;56.30
4556;DHT22;2290;48.674;9.018;2023-07-09T16:22:19;33.70;56.40
4556;DHT22;2290;48.674;9.018;2023-07-09T16:24:45;33.60;57.50
4556;DHT22;2290;48.674;9.018;2023-07-09T16:27:13;33.50;58.00
4556;DHT22;2290;48.674;9.018;2023-07-09T16:29:40;33.50;56.50
4556;DHT22;2290;48.674;9.018;2023-07-09T16:32:06;33.40;56.00
4556;DHT22;2290;48.674;9.018;2023-07-09T16:34:32;33.40;55.90
4556;DHT22;2290;48.674;9.018;2023-07-09T16:36:58;33.30;57.30
4556;DHT22;2290;48.674;9.018;2023-07-09T16:39:39;33.30;57.20
4556;DHT22;2290;48.674;9.018;2023-07-09T16:42:10;33.30;58.20
4556;DHT22;2290;48.674;9.018;2023-07-09T16:44:36;33.20;58.70
4556;DHT22;2290;48.674;9.018;2023-07-09T16:47:02;33.20;58.20
4556;DHT22;2290;48.674;9.018;2023-07-09T16:49:37;33.10;59.40